Newdale, Canada
Current Conditions -  °F | °C
As of 3:00 PM on Tuesday 27 Jan 2015 (Local Time) from CYBR Reporting Station
Overcast Overcast  
Wind Chill: 29°   Ceiling: 24000
Heat Index: 36°   Visibility: 15mi
Dew Point: 30°   Wind: 8mph
Humidity: 81%   Direction: 80°E
Pressure: 29.83"   Gusts: NA
Location:  50.35°N, 100.2°W
Report Text: CYBR 272100Z 08007KT 15SM OVC240 02/M01 A2983 RMK CI8 SLP126
Loading
Personal Weather Stations






























Interactive Weather Map New forecast layout! Learn more

10-Day Weather Forecast

Advertisements
Track Severe Weather on mobile